Time;durP1;ratioP1;P1;durP2;ratioP2;P2;SDS_P1;SDS_P2;PMS_P1;PMS_P2;Temp;Humidity;BMP_temperature;BMP_pressure;BME280_temperature;BME280_humidity;BME280_pressure;Samples;Min_cycle;Max_cycle;Signal;HPM_P1;HPM_P2
2023/01/15 00:00:47;;;;;;;;;;;;;;;18.61;47.26;99647.56;5111168;28;20290;-53
2023/01/15 00:03:13;;;;;;;;;;;;;;;18.61;47.05;99624.66;5111570;28;20375;-53
2023/01/15 00:05:38;;;;;;;;;;;;;;;18.61;47.11;99630.19;5148415;27;19934;-53
2023/01/15 00:08:04;;;;;;;;;;;;;;;18.62;47.04;99618.06;5142437;27;19923;-52
2023/01/15 00:10:30;;;;;;;;;;;;;;;18.61;47.18;99642.06;5111296;28;19924;-53
2023/01/15 00:12:55;;;;;;;;;;;;;;;18.61;47.20;99632.94;5130129;28;19924;-53
2023/01/15 00:15:21;;;;;;;;;;;;;;;18.60;47.27;99634.88;5131192;27;19923;-53
2023/01/15 00:17:46;;;;;;;;;;;;;;;18.61;46.98;99636.53;5150175;27;20286;-52
2023/01/15 00:20:12;;;;;;;;;;;;;;;18.61;47.26;99625.50;5150617;27;19940;-52
2023/01/15 00:22:37;;;;;;;;;;;;;;;18.61;47.24;99625.50;5150777;27;20378;-53
2023/01/15 00:27:49;;;;;;;;;;;;;;;18.61;47.01;99646.72;5138423;27;20417;-53
2023/01/15 00:30:15;;;;;;;;;;;;;;;18.62;47.19;99645.63;5153564;27;19923;-51
2023/01/15 00:32:41;;;;;;;;;;;;;;;18.61;47.20;99636.53;5154214;27;20305;-53
2023/01/15 00:35:09;;;;;;;;;;;;;;;18.60;47.27;99629.38;5154046;27;19941;-52
2023/01/15 00:37:34;;;;;;;;;;;;;;;18.60;47.27;99618.34;5153945;27;19953;-52
2023/01/15 00:40:00;;;;;;;;;;;;;;;18.60;47.23;99609.25;5154056;27;20294;-52
2023/01/15 00:42:26;;;;;;;;;;;;;;;18.61;47.26;99605.38;5154092;27;19930;-55
2023/01/15 00:44:53;;;;;;;;;;;;;;;18.61;47.25;99602.59;5154030;27;19930;-53
2023/01/15 00:47:18;;;;;;;;;;;;;;;18.60;47.26;99595.47;5153784;27;20337;-52
2023/01/15 00:49:44;;;;;;;;;;;;;;;18.61;46.96;99586.06;5153517;27;19923;-53
2023/01/15 00:52:10;;;;;;;;;;;;;;;18.60;46.99;99592.72;5153642;27;19944;-53
2023/01/15 00:54:35;;;;;;;;;;;;;;;18.60;47.12;99596.28;5134705;27;19927;-52
2023/01/15 00:57:01;;;;;;;;;;;;;;;18.60;47.04;99592.72;5153461;27;19972;-53
2023/01/15 00:59:26;;;;;;;;;;;;;;;18.60;46.95;99623.84;5152783;27;19923;-53
2023/01/15 01:01:52;;;;;;;;;;;;;;;18.61;47.03;99610.88;5153469;27;20368;-52
2023/01/15 01:04:18;;;;;;;;;;;;;;;18.60;47.20;99596.28;5153590;27;19931;-53
2023/01/15 01:06:43;;;;;;;;;;;;;;;18.60;47.34;99576.16;5135052;27;20482;-53
2023/01/15 01:09:16;;;;;;;;;;;;;;;18.59;47.08;99600.16;5153172;27;19927;-52
2023/01/15 01:11:41;;;;;;;;;;;;;;;18.59;46.93;99589.13;5153541;27;19941;-53
2023/01/15 01:14:08;;;;;;;;;;;;;;;18.59;47.28;99600.16;5153600;27;19927;-53
2023/01/15 01:16:34;;;;;;;;;;;;;;;18.59;47.22;99611.19;5134772;27;19962;-53
2023/01/15 01:19:02;;;;;;;;;;;;;;;18.60;47.06;99620.28;5152597;27;19977;-53
2023/01/15 01:21:28;;;;;;;;;;;;;;;18.59;46.95;99627.75;5153178;27;20034;-53
2023/01/15 01:23:53;;;;;;;;;;;;;;;18.59;47.18;99633.25;5134386;27;20096;-53
2023/01/15 01:26:19;;;;;;;;;;;;;;;18.60;47.23;99623.84;5134684;27;20380;-53
2023/01/15 01:28:49;;;;;;;;;;;;;;;18.58;46.95;99623.34;5152656;27;20289;-53
2023/01/15 01:31:14;;;;;;;;;;;;;;;18.60;47.21;99634.06;5152508;27;19977;-53
2023/01/15 01:33:40;;;;;;;;;;;;;;;18.59;47.21;99633.25;5152522;27;20363;-52
2023/01/15 01:36:05;;;;;;;;;;;;;;;18.60;47.13;99623.03;5153083;27;20381;-53
2023/01/15 01:38:31;;;;;;;;;;;;;;;18.59;47.27;99630.50;5141414;27;19923;-52
2023/01/15 01:40:56;;;;;;;;;;;;;;;18.58;47.29;99614.28;5132176;28;19941;-53
2023/01/15 01:43:23;;;;;;;;;;;;;;;18.60;47.21;99642.34;5132362;28;19927;-54
2023/01/15 01:45:49;;;;;;;;;;;;;;;18.59;47.17;99636.00;5113805;28;19989;-52
2023/01/15 01:48:15;;;;;;;;;;;;;;;18.59;47.35;99630.50;5132040;27;19924;-53
2023/01/15 01:50:40;;;;;;;;;;;;;;;18.59;46.95;99641.53;5131963;27;19946;-53
2023/01/15 01:53:07;;;;;;;;;;;;;;;18.58;47.18;99637.16;5132013;28;19924;-52
2023/01/15 01:55:33;;;;;;;;;;;;;;;18.59;47.26;99636.00;5131489;27;20175;-53
2023/01/15 01:57:59;;;;;;;;;;;;;;;18.58;47.05;99642.66;5113636;28;19927;-53
2023/01/15 02:00:25;;;;;;;;;;;;;;;18.58;46.99;99655.63;5115591;28;19923;-52
2023/01/15 02:02:50;;;;;;;;;;;;;;;18.58;47.14;99647.34;5131971;28;19929;-52
2023/01/15 02:05:20;;;;;;;;;;;;;;;18.58;47.23;99650.13;5131617;28;19955;-53
2023/01/15 02:07:46;;;;;;;;;;;;;;;18.58;47.23;99644.59;5131949;27;20275;-52
2023/01/15 02:10:12;;;;;;;;;;;;;;;18.59;47.19;99637.97;5131930;27;19927;-52
2023/01/15 02:12:38;;;;;;;;;;;;;;;18.57;46.97;99635.53;5131934;28;20000;-53
2023/01/15 02:15:10;;;;;;;;;;;;;;;18.59;47.13;99638.78;5131333;28;20321;-52
2023/01/15 02:17:39;;;;;;;;;;;;;;;18.59;47.04;99632.44;5131572;27;19959;-52
2023/01/15 02:20:27;;;;;;;;;;;;;;;18.58;46.92;99609.56;5142025;27;20421;-53
2023/01/15 02:23:03;;;;;;;;;;;;;;;18.58;47.02;99614.28;5151206;27;20382;-53
2023/01/15 02:25:48;;;;;;;;;;;;;;;18.59;47.00;99613.94;5152045;27;19959;-53
2023/01/15 02:28:16;;;;;;;;;;;;;;;18.58;47.11;99609.56;5140441;27;19931;-52
2023/01/15 02:30:43;;;;;;;;;;;;;;;18.58;47.13;99614.28;5131526;27;19980;-52
2023/01/15 02:33:11;;;;;;;;;;;;;;;18.58;46.94;99620.59;5131644;28;19970;-53
2023/01/15 02:35:39;;;;;;;;;;;;;;;18.58;46.96;99608.75;5131473;28;20291;-53
2023/01/15 02:38:06;;;;;;;;;;;;;;;18.58;47.03;99612.31;5132294;27;19927;-53
2023/01/15 02:40:31;;;;;;;;;;;;;;;18.58;46.94;99617.84;5112450;28;20383;-52
2023/01/15 02:42:57;;;;;;;;;;;;;;;18.59;47.14;99610.38;5131444;28;19924;-53
2023/01/15 02:45:25;;;;;;;;;;;;;;;18.59;47.14;99604.88;5130298;27;19923;-52
2023/01/15 02:47:52;;;;;;;;;;;;;;;18.58;47.19;99603.25;5112949;28;19975;-53
2023/01/15 02:50:19;;;;;;;;;;;;;;;18.58;47.16;99604.06;5131355;27;19966;-53
2023/01/15 02:52:45;;;;;;;;;;;;;;;18.58;47.11;99597.72;5112982;28;19928;-52
2023/01/15 02:55:13;;;;;;;;;;;;;;;18.57;47.14;99591.41;5130948;27;19923;-52
2023/01/15 02:57:39;;;;;;;;;;;;;;;18.58;47.19;99592.22;5131250;27;19930;-53
2023/01/15 03:00:07;;;;;;;;;;;;;;;18.58;47.20;99597.72;5133448;27;19927;-52
2023/01/15 03:02:35;;;;;;;;;;;;;;;18.57;47.22;99591.41;5112692;28;19930;-53
2023/01/15 03:05:04;;;;;;;;;;;;;;;18.58;46.96;99575.66;5112607;28;19927;-53
2023/01/15 03:07:31;;;;;;;;;;;;;;;18.56;47.12;99574.00;5130766;27;20299;-53
2023/01/15 03:09:56;;;;;;;;;;;;;;;18.57;47.05;99583.13;5112342;28;19927;-53
2023/01/15 03:12:25;;;;;;;;;;;;;;;18.58;47.07;99581.19;5130465;28;19927;-52
2023/01/15 03:15:06;;;;;;;;;;;;;;;18.57;46.94;99588.66;5130639;28;19952;-53
2023/01/15 03:17:34;;;;;;;;;;;;;;;18.57;46.92;99594.16;5131007;27;19930;-52
2023/01/15 03:20:04;;;;;;;;;;;;;;;18.57;47.20;99591.41;5112220;28;20309;-53
2023/01/15 03:22:31;;;;;;;;;;;;;;;18.57;47.14;99588.66;5146545;27;20056;-54
2023/01/15 03:25:01;;;;;;;;;;;;;;;18.56;46.94;99576.78;5151042;27;19930;-52
2023/01/15 03:27:26;;;;;;;;;;;;;;;18.57;47.13;99577.63;5147438;27;19923;-53
2023/01/15 03:29:57;;;;;;;;;;;;;;;18.56;46.94;99567.69;5132142;27;19933;-52
2023/01/15 03:32:24;;;;;;;;;;;;;;;18.58;47.13;99578.44;5112157;28;20294;-53
2023/01/15 03:34:50;;;;;;;;;;;;;;;18.56;46.95;99568.50;5129643;28;19923;-53
2023/01/15 03:37:16;;;;;;;;;;;;;;;18.57;46.88;99552.81;5113441;27;19923;-53
2023/01/15 03:39:41;;;;;;;;;;;;;;;18.58;47.11;99553.63;5111817;28;19927;-53
2023/01/15 03:42:27;;;;;;;;;;;;;;;18.56;47.08;99557.47;5130021;28;19923;-53
2023/01/15 03:45:02;;;;;;;;;;;;;;;18.56;47.13;99548.38;5114557;28;20283;-52
2023/01/15 03:47:29;;;;;;;;;;;;;;;18.57;47.13;99583.13;5130185;27;20054;-53
2023/01/15 03:50:15;;;;;;;;;;;;;;;18.55;47.08;99564.13;5129470;27;20290;-52
2023/01/15 03:52:51;;;;;;;;;;;;;;;18.56;46.88;99560.22;5114827;28;19971;-54
2023/01/15 03:55:18;;;;;;;;;;;;;;;18.57;47.05;99574.88;5111514;28;19962;-53
2023/01/15 03:57:49;;;;;;;;;;;;;;;18.56;47.06;99579.53;5129956;27;19923;-52
2023/01/15 04:00:20;;;;;;;;;;;;;;;18.56;46.88;99579.53;5132495;27;19965;-53
2023/01/15 04:02:46;;;;;;;;;;;;;;;18.57;46.89;99572.09;5130326;28;20367;-53
2023/01/15 04:05:11;;;;;;;;;;;;;;;18.56;47.18;99567.69;5110659;28;19971;-52
2023/01/15 04:07:37;;;;;;;;;;;;;;;18.58;47.07;99572.91;5130146;27;19984;-53
2023/01/15 04:10:05;;;;;;;;;;;;;;;18.57;47.11;99572.09;5129987;27;19930;-53
2023/01/15 04:12:32;;;;;;;;;;;;;;;18.57;47.07;99558.31;5129887;28;19924;-53
2023/01/15 04:14:58;;;;;;;;;;;;;;;18.57;46.90;99566.59;5129973;28;19959;-53
2023/01/15 04:17:23;;;;;;;;;;;;;;;18.56;47.16;99567.69;5129529;27;19924;-53
2023/01/15 04:19:50;;;;;;;;;;;;;;;18.56;47.21;99570.44;5129489;27;20383;-53
2023/01/15 04:22:15;;;;;;;;;;;;;;;18.56;47.05;99564.94;5129774;28;19973;-53
2023/01/15 04:24:41;;;;;;;;;;;;;;;18.56;47.09;99570.44;5145213;27;19923;-53
2023/01/15 04:27:06;;;;;;;;;;;;;;;18.58;47.17;99583.94;5150640;27;19930;-53
2023/01/15 04:29:32;;;;;;;;;;;;;;;18.56;46.99;99587.81;5132218;27;19923;-53
2023/01/15 04:31:58;;;;;;;;;;;;;;;18.56;46.98;99587.81;5129889;28;19960;-53
2023/01/15 04:34:24;;;;;;;;;;;;;;;18.56;47.22;99600.78;5128956;28;20017;-53
2023/01/15 04:36:50;;;;;;;;;;;;;;;18.55;47.12;99588.94;5118762;27;19927;-53
2023/01/15 04:39:15;;;;;;;;;;;;;;;18.56;46.81;99587.81;5134456;27;19927;-53
2023/01/15 04:44:28;;;;;;;;;;;;;;;18.56;46.95;99575.97;5131522;27;19930;-53
2023/01/15 04:46:53;;;;;;;;;;;;;;;18.56;46.86;99570.44;5150300;27;20415;-53
2023/01/15 04:49:19;;;;;;;;;;;;;;;18.56;47.12;99563.00;5149616;27;19926;-53
2023/01/15 04:51:45;;;;;;;;;;;;;;;18.56;47.14;99562.19;5149879;27;19934;-53
2023/01/15 04:54:11;;;;;;;;;;;;;;;18.56;47.01;99564.94;5131427;27;20128;-53
2023/01/15 04:56:38;;;;;;;;;;;;;;;18.56;47.08;99563.00;5150329;27;19931;-53
2023/01/15 04:59:03;;;;;;;;;;;;;;;18.56;46.92;99573.22;5131076;27;19927;-52
2023/01/15 05:01:29;;;;;;;;;;;;;;;18.56;46.97;99575.97;5150142;27;19927;-54
2023/01/15 05:03:57;;;;;;;;;;;;;;;18.55;47.16;99569.63;5150227;27;20112;-52
2023/01/15 05:06:22;;;;;;;;;;;;;;;18.56;47.07;99570.44;5149976;27;19927;-53
2023/01/15 05:08:48;;;;;;;;;;;;;;;18.56;47.09;99562.19;5150646;27;20054;-53
2023/01/15 05:11:13;;;;;;;;;;;;;;;18.56;46.82;99559.41;5153664;27;19930;-53
2023/01/15 05:13:39;;;;;;;;;;;;;;;18.56;46.96;99575.97;5153567;27;20324;-53
2023/01/15 05:16:07;;;;;;;;;;;;;;;18.56;47.17;99585.03;5153461;27;19923;-53
2023/01/15 05:18:32;;;;;;;;;;;;;;;18.55;46.91;99586.19;5134703;27;19934;-53
2023/01/15 05:20:58;;;;;;;;;;;;;;;18.56;47.03;99584.22;5153420;27;19927;-53
2023/01/15 05:23:23;;;;;;;;;;;;;;;18.56;47.14;99584.22;5152734;27;20354;-52
2023/01/15 05:25:49;;;;;;;;;;;;;;;18.55;47.06;99591.69;5152871;27;19923;-52
2023/01/15 05:28:15;;;;;;;;;;;;;;;18.55;46.94;99591.69;5153106;27;19927;-53
2023/01/15 05:30:40;;;;;;;;;;;;;;;18.55;46.99;99594.44;5153032;27;19931;-54
2023/01/15 05:33:06;;;;;;;;;;;;;;;18.56;47.08;99600.78;5153220;27;19927;-53
2023/01/15 05:35:31;;;;;;;;;;;;;;;18.56;47.22;99598.03;5153051;27;19923;-53
2023/01/15 05:37:57;;;;;;;;;;;;;;;18.56;47.03;99590.56;5152800;27;19927;-53
2023/01/15 05:40:22;;;;;;;;;;;;;;;18.55;47.13;99585.38;5152963;27;20271;-53
2023/01/15 05:42:48;;;;;;;;;;;;;;;18.55;47.00;99577.91;5153195;27;19950;-54
2023/01/15 05:45:13;;;;;;;;;;;;;;;18.56;46.95;99570.44;5153156;27;20319;-53
2023/01/15 05:47:39;;;;;;;;;;;;;;;18.56;47.13;99573.22;5152870;27;19927;-53
2023/01/15 05:50:05;;;;;;;;;;;;;;;18.55;47.16;99583.41;5152789;27;19933;-53
2023/01/15 05:52:30;;;;;;;;;;;;;;;18.55;46.82;99579.84;5152921;27;19931;-53
2023/01/15 05:54:56;;;;;;;;;;;;;;;18.55;47.15;99590.88;5152346;27;19927;-53
2023/01/15 05:57:21;;;;;;;;;;;;;;;18.55;47.23;99577.09;5152449;27;20370;-53
2023/01/15 05:59:49;;;;;;;;;;;;;;;18.56;47.00;99578.72;5152426;27;19923;-53
2023/01/15 06:02:14;;;;;;;;;;;;;;;18.54;46.85;99586.50;5152897;27;19978;-51
2023/01/15 06:04:40;;;;;;;;;;;;;;;18.55;46.90;99599.97;5152868;27;19934;-53
2023/01/15 06:07:05;;;;;;;;;;;;;;;18.56;47.03;99595.25;5152683;27;19923;-52
2023/01/15 06:09:31;;;;;;;;;;;;;;;18.55;47.06;99597.22;5152552;27;19923;-53
2023/01/15 06:11:57;;;;;;;;;;;;;;;18.55;46.97;99604.66;5152564;27;19923;-53
2023/01/15 06:14:22;;;;;;;;;;;;;;;18.55;47.07;99610.19;5152478;27;20390;-53
2023/01/15 06:16:48;;;;;;;;;;;;;;;18.55;47.15;99613.75;5152428;27;19969;-53
2023/01/15 06:19:13;;;;;;;;;;;;;;;18.55;47.17;99619.25;5133824;27;19923;-54
2023/01/15 06:21:39;;;;;;;;;;;;;;;18.55;47.15;99613.75;5152016;27;19927;-53
2023/01/15 06:24:05;;;;;;;;;;;;;;;18.55;46.87;99605.47;5151907;27;20299;-52
2023/01/15 06:26:30;;;;;;;;;;;;;;;18.56;47.18;99620.06;5151787;27;20355;-52
2023/01/15 06:28:56;;;;;;;;;;;;;;;18.55;47.07;99619.25;5151047;27;19923;-52
2023/01/15 06:31:22;;;;;;;;;;;;;;;18.55;47.09;99615.69;5151749;27;20343;-53
2023/01/15 06:33:47;;;;;;;;;;;;;;;18.56;46.95;99614.56;5133325;27;19923;-53
2023/01/15 06:36:14;;;;;;;;;;;;;;;18.56;46.87;99603.53;5134694;27;20019;-53
2023/01/15 06:38:40;;;;;;;;;;;;;;;18.56;46.83;99606.28;5128697;27;20398;-54
2023/01/15 06:47:19;;;;;;;;;;;;;;;18.55;47.15;99615.69;5131015;28;19930;-53
2023/01/15 06:49:27;;;;;;;;;;;;;;;18.55;47.08;99633.06;5115725;28;19973;-53
2023/01/15 06:51:52;;;;;;;;;;;;;;;18.55;47.06;99618.44;5131266;28;20371;-53
2023/01/15 06:54:18;;;;;;;;;;;;;;;18.55;46.99;99623.97;5130225;27;19931;-53
2023/01/15 06:56:43;;;;;;;;;;;;;;;18.55;46.96;99623.97;5130961;28;19945;-53
2023/01/15 06:59:09;;;;;;;;;;;;;;;18.55;47.17;99618.44;5133760;27;20209;-53
2023/01/15 07:01:37;;;;;;;;;;;;;;;18.55;46.81;99622.03;5130657;28;19927;-53
2023/01/15 07:04:03;;;;;;;;;;;;;;;18.55;47.08;99608.25;5131075;28;19930;-53
2023/01/15 07:06:28;;;;;;;;;;;;;;;18.55;47.13;99618.44;5131177;28;19924;-53
2023/01/15 07:08:54;;;;;;;;;;;;;;;18.54;47.06;99623.16;5130822;27;19930;-53
2023/01/15 07:11:20;;;;;;;;;;;;;;;18.56;47.09;99614.56;5130986;28;19935;-53
2023/01/15 07:13:45;;;;;;;;;;;;;;;18.55;46.78;99610.19;5112358;28;19924;-52
2023/01/15 07:16:25;;;;;;;;;;;;;;;18.56;47.14;99611.81;5130923;28;20347;-53
2023/01/15 07:18:51;;;;;;;;;;;;;;;18.55;46.88;99615.69;5130792;27;19984;-52
2023/01/15 07:21:17;;;;;;;;;;;;;;;18.54;46.98;99614.88;5130645;28;19927;-53
2023/01/15 07:23:42;;;;;;;;;;;;;;;18.55;46.89;99624.78;5130441;28;19950;-53
2023/01/15 07:26:08;;;;;;;;;;;;;;;18.55;47.06;99630.28;5130707;28;19933;-52
2023/01/15 07:28:34;;;;;;;;;;;;;;;18.55;47.06;99629.47;5136774;27;20331;-53
2023/01/15 07:30:59;;;;;;;;;;;;;;;18.55;47.13;99638.56;5150450;27;19923;-53
2023/01/15 07:33:25;;;;;;;;;;;;;;;18.55;46.94;99646.84;5150730;27;20340;-53
2023/01/15 07:35:50;;;;;;;;;;;;;;;18.55;47.11;99651.53;5143705;27;19927;-53
2023/01/15 07:38:16;;;;;;;;;;;;;;;18.55;47.09;99643.25;5139867;27;19971;-53
2023/01/15 07:40:41;;;;;;;;;;;;;;;18.56;46.92;99650.41;5151025;27;19950;-53
2023/01/15 07:51:24;;;;;;;;;;;;;;;18.56;46.87;99670.53;5135504;27;19923;-52
2023/01/15 07:53:49;;;;;;;;;;;;;;;18.55;47.00;99677.16;5150418;27;19950;-52
2023/01/15 07:56:15;;;;;;;;;;;;;;;18.55;47.08;99681.88;5150702;27;19923;-54
2023/01/15 07:58:40;;;;;;;;;;;;;;;18.54;46.87;99677.47;5150517;27;20358;-53
2023/01/15 08:01:06;;;;;;;;;;;;;;;18.55;46.90;99681.88;5150697;27;19927;-53
2023/01/15 08:03:32;;;;;;;;;;;;;;;18.55;47.03;99685.44;5150770;27;19927;-53
2023/01/15 08:05:57;;;;;;;;;;;;;;;18.55;47.15;99690.13;5151015;27;19923;-53
2023/01/15 08:08:23;;;;;;;;;;;;;;;18.55;46.74;99692.88;5150554;27;19923;-53
2023/01/15 08:16:19;;;;;;;;;;;;;;;18.55;46.91;99690.94;5135221;27;19924;-53
2023/01/15 08:18:45;;;;;;;;;;;;;;;18.56;46.88;99697.28;5150505;27;19972;-52
2023/01/15 08:21:13;;;;;;;;;;;;;;;18.56;46.88;99706.34;5150823;27;19976;-52
2023/01/15 08:23:38;;;;;;;;;;;;;;;18.54;46.96;99714.13;5150261;27;20395;-53
2023/01/15 08:26:04;;;;;;;;;;;;;;;18.54;46.79;99725.16;5150589;27;19924;-53
2023/01/15 08:28:30;;;;;;;;;;;;;;;18.55;46.88;99737.00;5149732;27;19969;-53
2023/01/15 08:30:56;;;;;;;;;;;;;;;18.55;47.00;99734.25;5140720;27;19931;-53
2023/01/15 08:33:21;;;;;;;;;;;;;;;18.55;47.15;99737.81;5150517;27;19927;-54
2023/01/15 08:35:47;;;;;;;;;;;;;;;18.55;46.99;99735.06;5156479;27;19956;-53
2023/01/15 08:38:12;;;;;;;;;;;;;;;18.56;47.01;99738.63;5162364;27;19948;-53
2023/01/15 08:40:57;;;;;;;;;;;;;;;18.55;46.74;99748.03;5149916;27;20279;-52
2023/01/15 08:43:23;;;;;;;;;;;;;;;18.55;47.14;99740.56;5150424;27;19927;-52
2023/01/15 08:45:48;;;;;;;;;;;;;;;18.56;47.03;99735.88;5135319;27;19930;-53
2023/01/15 08:48:14;;;;;;;;;;;;;;;18.55;47.00;99739.75;5153861;27;19923;-53
2023/01/15 08:50:39;;;;;;;;;;;;;;;18.54;46.89;99736.19;5153984;27;20370;-54
2023/01/15 08:53:05;;;;;;;;;;;;;;;18.55;46.99;99732.31;5153979;27;19946;-53
2023/01/15 08:55:31;;;;;;;;;;;;;;;18.56;47.07;99738.63;5153808;27;19967;-53
2023/01/15 08:57:57;;;;;;;;;;;;;;;18.56;47.01;99738.63;5153353;27;20408;-53
2023/01/15 09:00:23;;;;;;;;;;;;;;;18.55;47.11;99735.06;5153127;27;19927;-54
2023/01/15 09:02:49;;;;;;;;;;;;;;;18.55;46.89;99748.03;5153630;27;19923;-50
2023/01/15 09:05:15;;;;;;;;;;;;;;;18.56;47.09;99750.47;5153482;27;20323;-52
2023/01/15 09:07:41;;;;;;;;;;;;;;;18.55;47.12;99745.28;5153644;27;20649;-52
2023/01/15 09:10:07;;;;;;;;;;;;;;;18.55;47.01;99748.84;5139712;27;19927;-51
2023/01/15 09:12:32;;;;;;;;;;;;;;;18.55;47.11;99743.34;5133084;28;19927;-53
2023/01/15 09:15:00;;;;;;;;;;;;;;;18.55;46.80;99735.06;5132654;28;19934;-52
2023/01/15 09:17:28;;;;;;;;;;;;;;;18.56;47.09;99738.63;5135503;27;20150;-51
2023/01/15 09:19:54;;;;;;;;;;;;;;;18.56;46.85;99724.84;5134975;27;19923;-51
2023/01/15 09:22:19;;;;;;;;;;;;;;;18.55;46.90;99724.03;5152694;27;19923;-53
2023/01/15 09:24:46;;;;;;;;;;;;;;;18.54;46.86;99719.66;5153240;27;20365;-52
2023/01/15 09:27:11;;;;;;;;;;;;;;;18.55;46.70;99725.97;5153594;27;19923;-52
2023/01/15 09:29:37;;;;;;;;;;;;;;;18.55;46.98;99714.94;5134189;27;20405;-53
2023/01/15 09:32:02;;;;;;;;;;;;;;;18.55;46.80;99723.22;5153136;27;19923;-53
2023/01/15 09:34:28;;;;;;;;;;;;;;;18.55;46.74;99723.22;5153019;27;19987;-52
2023/01/15 09:36:53;;;;;;;;;;;;;;;18.56;46.90;99727.59;5153134;27;19927;-53
2023/01/15 09:39:19;;;;;;;;;;;;;;;18.55;46.82;99739.75;5134481;27;19930;-52
2023/01/15 09:42:21;;;;;;;;;;;;;;;18.55;47.04;99732.31;5153289;27;19923;-51
2023/01/15 09:44:38;;;;;;;;;;;;;;;18.55;46.90;99720.47;5137594;27;20290;-52
2023/01/15 09:47:24;;;;;;;;;;;;;;;18.55;46.77;99724.03;5134262;27;19962;-52
2023/01/15 09:50:09;;;;;;;;;;;;;;;18.55;46.69;99726.78;5136878;27;20365;-52
2023/01/15 09:52:43;;;;;;;;;;;;;;;18.55;46.99;99740.56;5136952;27;19934;-50
2023/01/15 09:55:12;;;;;;;;;;;;;;;18.55;46.96;99726.78;5151767;27;19992;-51
2023/01/15 09:57:37;;;;;;;;;;;;;;;18.55;47.00;99718.53;5133979;27;19962;-50
2023/01/15 10:00:04;;;;;;;;;;;;;;;18.55;46.79;99717.72;5152001;27;19930;-51
2023/01/15 10:02:33;;;;;;;;;;;;;;;18.54;46.65;99714.13;5152738;27;20327;-52
2023/01/15 10:05:01;;;;;;;;;;;;;;;18.55;46.92;99723.22;5134254;27;19978;-51
2023/01/15 10:07:50;;;;;;;;;;;;;;;18.54;46.67;99722.41;5134570;27;19926;-53
2023/01/15 10:10:17;;;;;;;;;;;;;;;18.55;46.86;99737.00;5136991;27;19931;-52
2023/01/15 10:12:44;;;;;;;;;;;;;;;18.55;46.96;99753.56;5152762;27;20383;-52
2023/01/15 10:15:13;;;;;;;;;;;;;;;18.54;46.91;99754.69;5134113;27;19923;-51
2023/01/15 10:17:43;;;;;;;;;;;;;;;18.55;46.95;99756.31;5133869;27;19930;-51
2023/01/15 10:20:15;;;;;;;;;;;;;;;18.55;46.94;99770.09;5152199;27;20410;-51
2023/01/15 10:22:47;;;;;;;;;;;;;;;18.55;46.54;99781.94;5133905;27;19923;-52
2023/01/15 10:25:15;;;;;;;;;;;;;;;18.55;46.86;99776.41;5133818;27;19977;-53
2023/01/15 10:27:40;;;;;;;;;;;;;;;18.55;46.59;99765.41;5152568;27;19930;-51
2023/01/15 10:30:11;;;;;;;;;;;;;;;18.54;46.87;99761.00;5151948;27;19927;-51
2023/01/15 10:32:47;;;;;;;;;;;;;;;18.55;46.90;99761.81;5152353;27;19938;-51
2023/01/15 10:35:30;;;;;;;;;;;;;;;18.55;46.55;99762.63;5163501;27;19941;-52
2023/01/15 10:37:58;;;;;;;;;;;;;;;18.55;46.91;99764.59;5160674;27;19976;-51
2023/01/15 10:40:41;;;;;;;;;;;;;;;18.54;46.77;99763.75;5131627;27;20221;-49
2023/01/15 10:43:26;;;;;;;;;;;;;;;18.55;46.85;99764.59;5131378;28;19927;-50
2023/01/15 10:45:56;;;;;;;;;;;;;;;18.54;46.79;99766.53;5116145;28;20399;-52
2023/01/15 10:48:41;;;;;;;;;;;;;;;18.54;46.62;99763.75;5131442;27;19931;-52
2023/01/15 10:51:23;;;;;;;;;;;;;;;18.54;46.51;99774.78;5116077;28;19938;-52
2023/01/15 10:54:06;;;;;;;;;;;;;;;18.54;46.70;99782.25;5130617;28;19955;-51
2023/01/15 10:56:33;;;;;;;;;;;;;;;18.54;46.73;99774.78;5131457;28;20280;-51
2023/01/15 10:59:07;;;;;;;;;;;;;;;18.55;46.47;99776.41;5146048;27;19927;-52
2023/01/15 11:01:32;;;;;;;;;;;;;;;18.55;46.72;99768.16;5152137;27;20401;-51
2023/01/15 11:03:58;;;;;;;;;;;;;;;18.55;46.54;99781.13;5133366;27;19936;-52
2023/01/15 11:06:25;;;;;;;;;;;;;;;18.55;46.71;99778.38;5132432;27;19924;-52
2023/01/15 11:08:52;;;;;;;;;;;;;;;18.54;46.54;99766.53;5151768;27;19923;-50
2023/01/15 11:20:09;;;;;;;;;;;;;;;18.54;46.49;99780.31;5173399;27;19923;-52
2023/01/15 11:22:37;;;;;;;;;;;;;;;18.55;46.72;99789.41;5170379;27;19927;-53
2023/01/15 11:25:02;;;;;;;;;;;;;;;18.56;46.56;99793.78;5189025;27;20370;-52
2023/01/15 11:27:30;;;;;;;;;;;;;;;18.55;46.64;99787.44;5188708;27;19926;-51
2023/01/15 11:29:57;;;;;;;;;;;;;;;18.55;46.41;99781.94;5188713;27;20289;-51
2023/01/15 11:32:26;;;;;;;;;;;;;;;18.55;46.68;99781.13;5189120;27;19927;-52
2023/01/15 11:34:52;;;;;;;;;;;;;;;18.55;46.57;99786.63;5182173;27;19930;-51
2023/01/15 11:37:18;;;;;;;;;;;;;;;18.55;46.30;99778.38;5185843;27;19987;-51
2023/01/15 11:39:50;;;;;;;;;;;;;;;18.54;46.55;99777.56;5166509;27;19923;-51
2023/01/15 11:50:47;;;;;;;;;;;;;;;18.55;46.53;99762.63;5150204;27;19949;-52
2023/01/15 11:53:16;;;;;;;;;;;;;;;18.55;46.47;99778.38;5149127;27;19966;-52
2023/01/15 11:55:59;;;;;;;;;;;;;;;18.54;46.44;99771.22;5148894;27;19934;-50
2023/01/15 11:58:26;;;;;;;;;;;;;;;18.55;46.50;99768.16;5148295;27;19964;-52
2023/01/15 12:00:53;;;;;;;;;;;;;;;18.55;46.53;99761.81;5166435;27;20032;-52
2023/01/15 12:03:20;;;;;;;;;;;;;;;18.55;46.27;99772.84;5167838;27;19930;-52
2023/01/15 12:05:46;;;;;;;;;;;;;;;18.54;46.43;99772.03;5167756;27;19923;-52
2023/01/15 12:08:18;;;;;;;;;;;;;;;18.55;46.26;99778.38;5149053;27;19962;-52
2023/01/15 12:11:17;;;;;;;;;;;;;;;18.54;46.31;99772.03;5167679;27;19955;-51
2023/01/15 12:13:55;;;;;;;;;;;;;;;18.54;46.51;99783.06;5154898;27;19946;-51
2023/01/15 12:16:27;;;;;;;;;;;;;;;18.54;46.48;99777.56;5167575;27;19927;-52
2023/01/15 12:19:04;;;;;;;;;;;;;;;18.55;46.20;99781.13;5167254;27;19930;-52
2023/01/15 12:21:37;;;;;;;;;;;;;;;18.55;46.52;99776.41;5148738;27;20157;-52
2023/01/15 12:24:09;;;;;;;;;;;;;;;18.55;46.24;99776.41;5163957;27;19927;-51
2023/01/15 12:26:38;;;;;;;;;;;;;;;18.55;46.41;99756.31;5134817;27;19923;-51
2023/01/15 12:31:41;;;;;;;;;;;;;;;18.55;46.10;99779.19;5189278;27;19925;-52
2023/01/15 12:34:11;;;;;;;;;;;;;;;18.54;46.09;99766.53;5172115;27;19965;-51
2023/01/15 12:36:38;;;;;;;;;;;;;;;18.55;46.41;99756.31;5210003;27;19988;-52
2023/01/15 12:39:10;;;;;;;;;;;;;;;18.54;46.27;99757.44;5177778;27;19923;-51
2023/01/15 12:45:14;;;;;;;;;;;;;;;18.55;46.19;99759.06;5137872;27;20250;-53
2023/01/15 12:47:48;;;;;;;;;;;;;;;18.54;46.19;99762.94;5141046;27;19945;-51
2023/01/15 12:50:18;;;;;;;;;;;;;;;18.54;46.40;99761.00;5152632;27;19988;-53
2023/01/15 12:52:44;;;;;;;;;;;;;;;18.54;46.26;99752.72;5168216;27;19923;-52
2023/01/15 12:55:14;;;;;;;;;;;;;;;18.55;46.33;99764.59;5155895;27;19930;-52
2023/01/15 12:57:42;;;;;;;;;;;;;;;18.54;46.31;99757.44;5147115;27;19962;-53
2023/01/15 13:00:12;;;;;;;;;;;;;;;18.55;46.30;99750.78;5131859;27;19981;-52
2023/01/15 13:02:57;;;;;;;;;;;;;;;18.55;46.27;99756.31;5147347;27;19930;-52
2023/01/15 13:05:39;;;;;;;;;;;;;;;18.54;46.17;99747.22;5131132;27;19981;-52
2023/01/15 13:08:09;;;;;;;;;;;;;;;18.54;46.08;99760.19;5146895;27;19984;-52
2023/01/15 13:10:35;;;;;;;;;;;;;;;18.54;46.07;99758.25;5146818;27;20393;-52
2023/01/15 13:13:14;;;;;;;;;;;;;;;18.54;46.01;99749.97;5146581;27;19923;-51
2023/01/15 13:15:41;;;;;;;;;;;;;;;18.54;46.21;99758.25;5146894;27;20374;-51
2023/01/15 13:18:11;;;;;;;;;;;;;;;18.54;45.94;99749.97;5128077;27;19927;-52
2023/01/15 13:20:42;;;;;;;;;;;;;;;18.55;46.19;99756.31;5146817;27;19965;-51
2023/01/15 13:23:28;;;;;;;;;;;;;;;18.54;46.23;99747.22;5146913;27;20375;-52
2023/01/15 13:28:40;;;;;;;;;;;;;;;18.55;46.15;99765.41;5189399;27;19925;-51
2023/01/15 13:31:09;;;;;;;;;;;;;;;18.54;46.18;99758.25;5147158;27;19969;-52
2023/01/15 13:33:36;;;;;;;;;;;;;;;18.55;46.20;99765.41;5173877;27;20430;-52
2023/01/15 13:36:04;;;;;;;;;;;;;;;18.54;46.08;99761.00;5189194;27;20293;-50
2023/01/15 13:38:29;;;;;;;;;;;;;;;18.54;46.13;99752.72;5177781;27;20021;-51
2023/01/15 13:40:55;;;;;;;;;;;;;;;18.55;46.25;99759.06;5167762;27;19962;-52
2023/01/15 13:43:23;;;;;;;;;;;;;;;18.54;46.23;99769.28;5168201;27;19949;-52